• Join FlightAware (Why Join?)
  • Login
  • US Flag 
04:06PM EDT


 

Airport Tracker/Info


-or-


 

Live Flight TrackerFlight Track Log ✈ NKS235 ✈ 18-Jun-2013 ✈ KACY - KFLL

Flight Track Log - Related Links

Times and Time Zones

All times are in EDT time to prevent confusion due to time zone crossing. See the NKS235 flight status page for this flight to view local times or setup timezone preferences in your user account.

Time Position Orientation Groundspeed Altitude Reporting Facility
EDT Latitude Longitude Course Direction KTS MPH feet Rate Location/Type
02:07PM 39.4486 -74.5521 116° Southeast 158 182 1,200  Level FlightAware ADS-B
02:07PM 39.4443 -74.5401 115° Southeast 164 189 1,600 1,620 Climbing FlightAware ADS-B
02:07PM 39.4389 -74.5255 116° Southeast 176 203 2,000 1,560 Climbing FlightAware ADS-B
02:07PM 39.4320 -74.5077 117° Southeast 190 219 2,500 1,860 Climbing FlightAware ADS-B
02:08PM 39.4297 -74.5038 127° Southeast 190 219 2,700 1,680 Climbing FlightAware ADS-B
02:08PM 39.4277 -74.5015 138° Southeast 189 217 2,700 1,500 Level FlightAware ADS-B
02:08PM 39.4238 -74.4990 154° Southeast 189 217 2,900 1,980 Climbing FlightAware ADS-B
02:08PM 39.4203 -74.4979 166° South 189 217 3,000 1,980 Climbing FlightAware ADS-B
02:08PM 39.4113 -74.5001 191° South 193 222 3,400 2,100 Climbing FlightAware ADS-B
02:08PM 39.4086 -74.5024 213° Southwest 196 226 3,500 1,980 Climbing FlightAware ADS-B
02:08PM 39.4046 -74.5066 219° Southwest 199 229 3,700 1,380 Climbing FlightAware ADS-B
02:08PM 39.3994 -74.5126 222° Southwest 209 241 3,800 1,020 Climbing FlightAware ADS-B
02:08PM 39.3858 -74.5261 217° Southwest 237 273 4,100 1,140 Climbing FlightAware ADS-B
02:09PM 39.3766 -74.5344 215° Southwest 253 291 4,300 1,680 Climbing FlightAware ADS-B
02:09PM 39.3721 -74.5370 204° Southwest 255 293 4,500 3,000 Climbing FlightAware ADS-B
02:09PM 39.3654 -74.5392 194° South 255 293 4,800 3,300 Climbing FlightAware ADS-B
02:09PM 39.3620 -74.5395 184° South 256 295 5,000 3,000 Climbing FlightAware ADS-B
02:09PM 39.3582 -74.5395 180° South 257 296 5,100 3,420 Climbing FlightAware ADS-B
02:09PM 39.3539 -74.5393 178° South 258 297 5,400 3,300 Climbing FlightAware ADS-B
02:09PM 39.3354 -74.5381 177° South 261 300 6,200 2,880 Climbing FlightAware ADS-B
02:11PM 39.2410 -74.5460 184° South 271 312 9,900 2,400 Climbing FlightAware
02:11PM 39.1810 -74.5670 195° South 320 368 11,100 1,440 Climbing FlightAware
02:12PM 39.1200 -74.5770 187° South 341 392 12,000 780 Climbing FlightAware
02:13PM 39.0500 -74.5670 174° South 328 377 12,200 1,680 Climbing FlightAware
02:13PM 38.9840 -74.5540 171° South 312 359 14,500 2,760 Climbing FlightAware
02:14PM 38.9360 -74.5450 172° South 321 369 15,800 2,160 Climbing FlightAware
02:15PM 38.8820 -74.5530 187° South 324 373 17,000 1,800 Climbing FlightAware
02:15PM 38.8400 -74.5760 203° Southwest 332 382 17,800 1,980 Climbing FlightAware
02:16PM 38.7780 -74.6080 202° Southwest 332 382 19,500 2,040 Climbing FlightAware
02:16PM 38.7200 -74.6380 202° Southwest 332 382 20,700 1,620 Climbing FlightAware
02:17PM 38.6770 -74.6600 202° Southwest 344 396 21,400 1,140 Climbing FlightAware
02:18PM 38.6280 -74.6860 203° Southwest 347 399 22,000 780 Climbing FlightAware
02:18PM 38.5630 -74.7190 202° Southwest 350 403 22,400 840 Climbing FlightAware
02:19PM 38.5080 -74.7480 202° Southwest 362 417 23,100 720 Climbing FlightAware
02:19PM 38.4520 -74.7770 202° Southwest 384 442 23,300 360 Climbing FlightAware
02:20PM 38.4214 -74.7928 202° Southwest 397 457 23,500 960 Climbing FlightAware ADS-B
02:20PM 38.3556 -74.8267 202° Southwest 403 464 24,200 1,200 Climbing FlightAware ADS-B
02:21PM 38.2997 -74.8553 202° Southwest 410 472 24,800 1,200 Climbing FlightAware ADS-B
02:21PM 38.2770 -74.8681 204° Southwest 409 471 25,100 1,260 Climbing FlightAware ADS-B
02:21PM 38.2443 -74.8898 208° Southwest 410 472 25,500 1,260 Climbing FlightAware ADS-B
02:22PM 38.1939 -74.9305 212° Southwest 411 473 26,200 1,140 Climbing FlightAware ADS-B
02:22PM 38.1435 -74.9716 213° Southwest 416 479 26,700 1,080 Climbing FlightAware ADS-B
02:23PM 38.0940 -75.0117 213° Southwest 419 482 27,300 960 Climbing FlightAware ADS-B
02:24PM 38.0336 -75.0604 212° Southwest 426 490 27,800 960 Climbing FlightAware ADS-B
02:24PM 37.9836 -75.1008 212° Southwest 426 490 28,400 1,140 Climbing FlightAware ADS-B
02:25PM 37.9317 -75.1427 212° Southwest 427 491 29,000 960 Climbing FlightAware ADS-B
02:25PM 37.8803 -75.1842 213° Southwest 431 496 29,400 960 Climbing FlightAware ADS-B
02:26PM 37.8227 -75.2306 212° Southwest 431 496 30,100 1,380 Climbing FlightAware ADS-B
02:26PM 37.7711 -75.2720 212° Southwest 423 487 30,900 1,320 Climbing FlightAware ADS-B
02:27PM 37.7196 -75.3133 212° Southwest 422 486 31,500 1,260 Climbing FlightAware ADS-B
02:27PM 37.6650 -75.3560 212° Southwest 418 481 32,300 1,260 Climbing FlightAware
02:28PM 37.6366 -75.3795 213° Southwest 417 480 32,600 1,020 Climbing FlightAware ADS-B
02:29PM 37.5290 -75.4650 212° Southwest 408 470 33,800 1,020 Climbing FlightAware
02:29PM 37.4700 -75.5120 212° Southwest 405 466 34,500 780 Climbing FlightAware
02:30PM 37.3990 -75.5690 213° Southwest 406 467 35,100 840 Climbing FlightAware
02:31PM 37.3080 -75.6400 212° Southwest 403 464 35,900 1,020 Climbing FlightAware
02:31PM 37.2837 -75.6599 213° Southwest 410 472 36,000 120 Climbing FlightAware ADS-B
02:32PM 37.2338 -75.6994 212° Southwest 410 472 36,000  Level FlightAware ADS-B
02:32PM 37.1838 -75.7388 212° Southwest 411 473 36,000  Level FlightAware ADS-B
02:33PM 37.1308 -75.7803 212° Southwest 412 474 36,000  Level FlightAware ADS-B
02:33PM 37.0821 -75.8186 212° Southwest 413 475 36,000  Level FlightAware ADS-B
02:34PM 37.0341 -75.8562 212° Southwest 413 475 36,000  Level FlightAware ADS-B
02:34PM 36.9844 -75.8951 212° Southwest 414 476 36,000  Level FlightAware ADS-B
02:35PM 36.9299 -75.9377 212° Southwest 414 476 36,000  Level FlightAware ADS-B
02:35PM 36.8796 -75.9770 212° Southwest 415 478 36,000  Level FlightAware ADS-B
02:36PM 36.8261 -76.0187 212° Southwest 416 479 36,000  Level FlightAware ADS-B
02:36PM 36.7757 -76.0578 212° Southwest 416 479 36,000  Level FlightAware ADS-B
02:37PM 36.7139 -76.1058 212° Southwest 416 479 36,000  Level FlightAware ADS-B
02:38PM 36.6630 -76.1453 212° Southwest 416 479 36,000  Level FlightAware ADS-B
02:38PM 36.6010 -76.1932 212° Southwest 418 481 36,000  Level FlightAware ADS-B
02:39PM 36.5170 -76.2580 212° Southwest 418 481 36,000  Level FlightAware
02:41PM 36.3700 -76.3710 212° Southwest 419 482 36,000  Level FlightAware
02:41PM 36.3000 -76.4250 212° Southwest 420 483 36,000  Level FlightAware
02:42PM 36.2410 -76.4700 212° Southwest 420 483 36,000  Level FlightAware
02:43PM 36.1760 -76.5200 212° Southwest 420 483 36,000  Level FlightAware
02:44PM 36.0890 -76.5850 211° Southwest 419 482 36,000  Level FlightAware
02:44PM 36.0306 -76.6297 211° Southwest 428 493 36,000  Level Washington Center
02:45PM 35.9297 -76.7053 211° Southwest 428 493 36,000 -60 Level Washington Center
02:46PM 35.8331 -76.7808 212° Southwest 428 493 35,900 -60 Descending Washington Center
02:47PM 35.7300 -76.8533 210° Southwest 428 493 35,900  Level Washington Center
02:48PM 35.6353 -76.9311 214° Southwest 428 493 36,000  Climbing Washington Center
02:49PM 35.5386 -77.0011 211° Southwest 422 486 36,000  Level Washington Center
02:50PM 35.4375 -77.0783 212° Southwest 422 486 36,000  Level Washington Center
02:51PM 35.3236 -77.1578 210° Southwest 428 493 36,000  Level Washington Center
02:52PM 35.2247 -77.2344 212° Southwest 433 498 36,000  Level Washington Center
02:53PM 35.1233 -77.3086 211° Southwest 433 498 36,000  Level Washington Center
02:54PM 35.0181 -77.3850 211° Southwest 433 498 36,000  Level Washington Center
02:55PM 34.9189 -77.4589 211° Southwest 433 498 36,000  Level Washington Center
02:56PM 34.8194 -77.5375 213° Southwest 433 498 36,000  Level Washington Center
02:57PM 34.7161 -77.6108 210° Southwest 433 498 36,000  Level Washington Center
03:03PM 34.0650 -77.9580 210° Southwest 443 510 36,000  Level FlightAware
03:04PM 33.9780 -77.9830 193° South 442 509 36,000  Level FlightAware
03:04PM 33.9120 -78.0020 193° South 441 507 36,000  Level FlightAware
03:05PM 33.8200 -78.0280 193° South 444 511 36,000  Level FlightAware
03:06PM 33.7390 -78.0520 194° South 446 513 36,000  Level FlightAware
03:07PM 33.6270 -78.0830 193° South 447 514 36,000  Level FlightAware
03:08PM 33.4690 -78.1290 194° South 451 519 36,000  Level FlightAware
03:09PM 33.3760 -78.1560 194° South 451 519 36,000  Level FlightAware
03:10PM 33.2520 -78.1910 193° South 452 520 36,000  Level FlightAware
03:10PM 33.2130 -78.2020 193° South 452 520 36,000  Level FlightAware
03:11PM 33.0740 -78.2410 193° South 453 521 36,000  Level FlightAware
03:12PM 32.9790 -78.2680 193° South 454 522 36,000  Level FlightAware
03:13PM 32.9010 -78.2900 193° South 453 521 36,000  Level FlightAware
03:13PM 32.8040 -78.3170 193° South 453 521 36,000  Level FlightAware
03:14PM 32.7140 -78.3430 194° South 454 522 36,000  Level FlightAware
03:15PM 32.6580 -78.3580 193° South 455 524 36,000  Level FlightAware
03:15PM 32.5730 -78.3820 193° South 456 525 36,000  Level FlightAware
03:16PM 32.4920 -78.4050 193° South 458 527 36,000  Level FlightAware
03:17PM 32.4130 -78.4270 193° South 457 526 36,000  Level FlightAware
03:17PM 32.3330 -78.4500 194° South 458 527 36,000  Level FlightAware
03:18PM 32.2630 -78.4710 194° South 459 528 36,000  Level FlightAware
03:18PM 32.1780 -78.4960 194° South 461 531 36,000  Level FlightAware
03:19PM 32.1050 -78.5170 194° South 462 532 36,000  Level FlightAware
03:20PM 31.9670 -78.5540 193° South 462 532 36,000  Level FlightAware
03:21PM 31.9030 -78.5720 193° South 462 532 36,000  Level FlightAware
03:22PM 31.8180 -78.5950 193° South 462 532 36,000  Level FlightAware
03:22PM 31.7520 -78.6130 193° South 462 532 36,000  Level FlightAware
03:23PM 31.6090 -78.6600 196° South 462 532 36,000  Level FlightAware
03:24PM 31.4890 -78.6930 193° South 462 532 36,000  Level FlightAware
03:25PM 31.4250 -78.7100 193° South 462 532 36,000  Level FlightAware
03:26PM 31.3370 -78.7340 193° South 462 532 36,000  Level FlightAware
03:26PM 31.4930 -78.6920 13° North 462 532 36,000  Level FlightAware
03:27PM 31.4290 -78.7090 193° South 462 532 36,000  Level FlightAware
03:27PM 31.3650 -78.7260 193° South 462 532 36,000  Level FlightAware
03:28PM 31.2780 -78.7500 193° South 462 532 36,000  Level FlightAware
03:29PM 31.2110 -78.7680 193° South 462 532 36,000  Level FlightAware
03:30PM 31.1470 -78.7850 193° South 462 532 36,000  Level FlightAware
03:30PM 31.0610 -78.8090 193° South 462 532 36,000  Level FlightAware
03:31PM 30.9950 -78.8260 192° South 462 532 36,000  Level FlightAware
03:32PM 30.9080 -78.8500 193° South 462 532 36,000  Level FlightAware
03:32PM 30.8460 -78.8660 192° South 462 532 36,000  Level FlightAware
03:33PM 30.7600 -78.8890 193° South 462 532 36,000  Level FlightAware
03:34PM 30.6940 -78.9070 193° South 462 532 36,000  Level FlightAware
03:34PM 30.6290 -78.9250 193° South 462 532 36,000  Level FlightAware
03:36PM 30.5030 -78.9580 193° South 462 532 36,000  Level FlightAware
03:37PM 29.8575 -79.1525 193° South 468 539 36,000  Level Miami Center
03:38PM 29.7256 -79.1783 190° South 468 539 36,000  Level Miami Center
03:39PM 29.5981 -79.2114 193° South 468 539 36,000  Level Miami Center
03:40PM 29.4844 -79.2542 198° South 468 539 36,000  Level Miami Center
03:41PM 29.3486 -79.2775 189° South 468 539 36,000  Level Miami Center
03:42PM 29.2481 -79.2989 191° South 468 539 36,000  Level Miami Center
03:43PM 29.1100 -79.3314 192° South 469 540 36,000  Level Miami Center
03:44PM 28.9883 -79.3644 193° South 464 534 36,000  Level Miami Center
03:50PM 28.2420 -79.5490 193° South 456 525 36,000  Level FlightAware
03:51PM 28.1880 -79.5620 192° South 455 524 36,000  Level FlightAware
03:51PM 28.1170 -79.5790 192° South 455 524 36,000  Level FlightAware
03:52PM 28.0340 -79.5990 192° South 455 524 36,000  Level FlightAware
03:53PM 27.9500 -79.6190 192° South 455 524 36,000 -2,820 Level FlightAware
03:54PM 27.7890 -79.6590 192° South 454 522 32,200 -4,080 Descending FlightAware
03:54PM 27.6980 -79.6810 192° South 447 514 30,700 -1,380 Descending FlightAware
03:55PM 27.6210 -79.7000 192° South 445 512 30,200 -2,040 Descending FlightAware
03:56PM 27.5380 -79.7200 192° South 436 502 28,000 -2,820 Descending FlightAware
03:56PM 27.4510 -79.7410 192° South 431 496 26,500 -2,040 Descending FlightAware
03:57PM 27.3760 -79.7580 191° South 427 491 25,200 -1,980 Descending FlightAware
03:57PM 27.3180 -79.7710 191° South 425 489 24,200 -2,400 Descending FlightAware
03:58PM 27.2420 -79.7630 175° South 424 488 22,500 -2,580 Descending FlightAware
03:59PM 27.1550 -79.7500 172° South 418 481 20,700 -2,280 Descending FlightAware
04:00PM 27.0730 -79.7370 172° South 405 466 19,200 -2,040 Descending FlightAware
04:00PM 26.9740 -79.7210 172° South 388 447 17,400 -1,920 Descending FlightAware
04:01PM 26.9050 -79.7090 171° South 377 434 16,200 -1,800 Descending FlightAware
04:02PM 26.8300 -79.6970 172° South 362 417 14,900 -1,800 Descending FlightAware
04:03PM 26.7640 -79.6860 172° South 351 404 13,700 -1,680 Descending FlightAware
04:03PM 26.7220 -79.6970 193° South 342 394 13,000 -1,620 Descending FlightAware
04:04PM 26.6650 -79.7240 203° Southwest 333 383 11,900 -840 Descending FlightAware
04:04PM 26.6150 -79.7480 203° Southwest 333 383 11,900 -1,560 Level FlightAware
04:05PM 26.5300 -79.7880 203° Southwest 308 354 9,400 -2,280 Descending FlightAware
04:06PM 26.4910 -79.8070 204° Southwest 301 346 8,600 -1,740 Descending FlightAware
04:06PM 26.4760 -79.8140 203° Southwest 305 351 8,200 -1,140 Descending FlightAware
04:06PM 26.4490 -79.8260 202° Southwest 297 342 7,900 -360 Descending FlightAware
04:07PM 26.4050 -79.8480 204° Southwest 279 321 7,900  Level FlightAware
04:07PM 26.3850 -79.8580 204° Southwest 278 320 7,900  Level FlightAware
04:08PM 26.3590 -79.8800 217° Southwest 278 320 7,900  Level FlightAware
04:08PM 26.3310 -79.9080 222° Southwest 278 320 7,900  Level FlightAware
04:09PM 26.3050 -79.9330 221° Southwest 279 321 7,900 -120 Level FlightAware
04:09PM 26.2780 -79.9590 221° Southwest 276 318 7,800 -900 Descending FlightAware
04:10PM 26.2530 -79.9840 222° Southwest 276 318 7,100 -1,680 Descending FlightAware
04:10PM 26.2220 -80.0130 220° Southwest 277 319 6,200 -1,320 Descending FlightAware
04:10PM 26.1970 -80.0360 220° Southwest 275 316 5,900 -360 Descending FlightAware
04:11PM 26.1750 -80.0690 233° Southwest 266 306 5,900  Level FlightAware
04:11PM 26.1660 -80.0990 252° West 239 275 5,900  Level FlightAware
04:12PM 26.1550 -80.1350 251° West 231 266 5,900 -120 Level FlightAware
04:12PM 26.1500 -80.1680 260° West 230 265 5,800 -720 Descending FlightAware
04:13PM 26.1500 -80.1960 270° West 231 266 5,300 -1,380 Descending FlightAware
04:13PM 26.1500 -80.2140 270° West 233 268 4,900 -1,080 Descending FlightAware
04:14PM 26.1500 -80.2490 270° West 226 260 4,500 -660 Descending FlightAware
04:14PM 26.1500 -80.2830 270° West 210 242 4,300 -600 Descending FlightAware
04:14PM 26.1500 -80.3080 270° West 199 229 4,000 -480 Descending FlightAware
04:15PM 26.1500 -80.3350 270° West 201 231 3,900 -300 Descending FlightAware
04:15PM 26.1500 -80.3550 270° West 198 228 3,800 -420 Descending FlightAware
04:15PM 26.1460 -80.3640 244° Southwest 195 224 3,700 -600 Descending FlightAware
04:16PM 26.1400 -80.3710 226° Southwest 183 211 3,600 -900 Descending FlightAware
04:16PM 26.1150 -80.3720 182° South 176 203 3,100 -960 Descending FlightAware
04:17PM 26.0930 -80.3630 160° South 165 190 2,700 -900 Descending FlightAware
04:17PM 26.0900 -80.3550 113° Southeast 164 189 2,500 -900 Descending FlightAware
04:17PM 26.0850 -80.3310 103° East 158 182 2,100 -660 Descending FlightAware
04:18PM 26.0810 -80.3080 101° East 144 166 1,900 -240 Descending FlightAware
04:18PM 26.0780 -80.2860 99° East 148 170 1,900 -420 Level FlightAware
04:19PM 26.0780 -80.2640 90° East 146 168 1,500 -720 Descending FlightAware
04:19PM 26.0780 -80.2480 90° East 141 162 1,300 -660 Descending FlightAware
04:20PM 26.0770 -80.2160 92° East 138 159 800 -720 Descending FlightAware
04:20PM 26.0770 -80.1950 90° East 137 158 400 -720 Descending FlightAware
04:21PM 26.0770 -80.1810 90° East 134 154 200 -240 Descending FlightAware
04:21PM 26.0770 -80.1660 90° East 134 154 200  Level FlightAware
04:28PM 26.0667 -80.1500 103° East  Level FlightAware Approximate
04:29PM 26.0726 -80.1527 103° East  Level Estimated